sensor_id;sensor_type;location;lat;lon;timestamp;P1;durP1;ratioP1;P2;durP2;ratioP2
22166;SDS011;11249;52.468;13.776;2023-05-28T00:00:23;11.38;;;5.60;;
22166;SDS011;11249;52.468;13.776;2023-05-28T00:02:50;9.20;;;5.75;;
22166;SDS011;11249;52.468;13.776;2023-05-28T00:05:17;9.02;;;5.78;;
22166;SDS011;11249;52.468;13.776;2023-05-28T00:07:44;8.38;;;5.30;;
22166;SDS011;11249;52.468;13.776;2023-05-28T00:10:10;8.13;;;5.82;;
22166;SDS011;11249;52.468;13.776;2023-05-28T00:12:37;9.52;;;5.65;;
22166;SDS011;11249;52.468;13.776;2023-05-28T00:15:04;7.88;;;5.63;;
22166;SDS011;11249;52.468;13.776;2023-05-28T00:17:32;10.07;;;6.05;;
22166;SDS011;11249;52.468;13.776;2023-05-28T00:19:59;8.75;;;5.32;;
22166;SDS011;11249;52.468;13.776;2023-05-28T00:22:26;8.65;;;5.55;;
22166;SDS011;11249;52.468;13.776;2023-05-28T00:24:53;12.38;;;6.22;;
22166;SDS011;11249;52.468;13.776;2023-05-28T00:27:20;7.82;;;5.88;;
22166;SDS011;11249;52.468;13.776;2023-05-28T00:29:47;10.52;;;5.93;;
22166;SDS011;11249;52.468;13.776;2023-05-28T00:32:14;10.00;;;5.95;;
22166;SDS011;11249;52.468;13.776;2023-05-28T00:34:41;9.38;;;5.65;;
22166;SDS011;11249;52.468;13.776;2023-05-28T00:37:07;11.25;;;6.05;;
22166;SDS011;11249;52.468;13.776;2023-05-28T00:39:34;9.25;;;6.22;;
22166;SDS011;11249;52.468;13.776;2023-05-28T00:42:04;10.60;;;5.70;;
22166;SDS011;11249;52.468;13.776;2023-05-28T00:44:33;12.18;;;6.30;;
22166;SDS011;11249;52.468;13.776;2023-05-28T00:47:00;10.93;;;6.03;;
22166;SDS011;11249;52.468;13.776;2023-05-28T00:49:28;10.70;;;6.43;;
22166;SDS011;11249;52.468;13.776;2023-05-28T00:51:55;11.35;;;6.50;;
22166;SDS011;11249;52.468;13.776;2023-05-28T00:54:23;9.57;;;6.55;;
22166;SDS011;11249;52.468;13.776;2023-05-28T00:56:51;13.40;;;6.82;;
22166;SDS011;11249;52.468;13.776;2023-05-28T00:59:20;10.13;;;6.25;;
22166;SDS011;11249;52.468;13.776;2023-05-28T01:01:49;7.95;;;5.75;;
22166;SDS011;11249;52.468;13.776;2023-05-28T01:04:16;10.85;;;6.03;;
22166;SDS011;11249;52.468;13.776;2023-05-28T01:06:43;10.65;;;6.28;;
22166;SDS011;11249;52.468;13.776;2023-05-28T01:09:11;12.77;;;6.40;;
22166;SDS011;11249;52.468;13.776;2023-05-28T01:11:42;8.70;;;5.88;;
22166;SDS011;11249;52.468;13.776;2023-05-28T01:14:10;8.32;;;5.55;;
22166;SDS011;11249;52.468;13.776;2023-05-28T01:16:38;13.52;;;6.63;;
22166;SDS011;11249;52.468;13.776;2023-05-28T01:19:05;12.20;;;6.30;;
22166;SDS011;11249;52.468;13.776;2023-05-28T01:21:37;9.82;;;6.28;;
22166;SDS011;11249;52.468;13.776;2023-05-28T01:24:08;10.07;;;5.82;;
22166;SDS011;11249;52.468;13.776;2023-05-28T01:26:36;10.07;;;5.90;;
22166;SDS011;11249;52.468;13.776;2023-05-28T01:29:13;9.52;;;5.97;;
22166;SDS011;11249;52.468;13.776;2023-05-28T01:31:44;11.82;;;6.50;;
22166;SDS011;11249;52.468;13.776;2023-05-28T01:34:11;11.10;;;6.60;;
22166;SDS011;11249;52.468;13.776;2023-05-28T01:36:43;13.50;;;6.30;;
22166;SDS011;11249;52.468;13.776;2023-05-28T01:39:15;13.90;;;6.65;;
22166;SDS011;11249;52.468;13.776;2023-05-28T01:41:45;16.88;;;6.57;;
22166;SDS011;11249;52.468;13.776;2023-05-28T01:44:13;12.25;;;6.40;;
22166;SDS011;11249;52.468;13.776;2023-05-28T01:46:48;12.15;;;6.32;;
22166;SDS011;11249;52.468;13.776;2023-05-28T01:49:19;12.77;;;6.47;;
22166;SDS011;11249;52.468;13.776;2023-05-28T01:51:47;9.50;;;6.47;;
22166;SDS011;11249;52.468;13.776;2023-05-28T01:54:15;11.23;;;6.80;;
22166;SDS011;11249;52.468;13.776;2023-05-28T01:56:42;8.60;;;6.07;;
22166;SDS011;11249;52.468;13.776;2023-05-28T01:59:09;11.70;;;6.40;;
22166;SDS011;11249;52.468;13.776;2023-05-28T02:01:36;9.35;;;6.38;;
22166;SDS011;11249;52.468;13.776;2023-05-28T02:04:03;9.60;;;6.38;;
22166;SDS011;11249;52.468;13.776;2023-05-28T02:06:30;10.68;;;6.25;;
22166;SDS011;11249;52.468;13.776;2023-05-28T02:08:58;10.52;;;6.60;;
22166;SDS011;11249;52.468;13.776;2023-05-28T02:11:25;10.15;;;6.13;;
22166;SDS011;11249;52.468;13.776;2023-05-28T02:13:52;11.00;;;6.65;;
22166;SDS011;11249;52.468;13.776;2023-05-28T02:16:20;8.52;;;6.85;;
22166;SDS011;11249;52.468;13.776;2023-05-28T02:18:50;10.18;;;6.53;;
22166;SDS011;11249;52.468;13.776;2023-05-28T02:21:18;9.23;;;6.13;;
22166;SDS011;11249;52.468;13.776;2023-05-28T02:23:45;13.80;;;6.72;;
22166;SDS011;11249;52.468;13.776;2023-05-28T02:26:13;9.27;;;6.18;;
22166;SDS011;11249;52.468;13.776;2023-05-28T02:28:41;11.05;;;6.85;;
22166;SDS011;11249;52.468;13.776;2023-05-28T02:31:11;9.70;;;6.60;;
22166;SDS011;11249;52.468;13.776;2023-05-28T02:33:39;10.20;;;6.50;;
22166;SDS011;11249;52.468;13.776;2023-05-28T02:36:08;10.70;;;6.70;;
22166;SDS011;11249;52.468;13.776;2023-05-28T02:38:39;8.57;;;6.38;;
22166;SDS011;11249;52.468;13.776;2023-05-28T02:41:07;10.70;;;7.03;;
22166;SDS011;11249;52.468;13.776;2023-05-28T02:43:34;9.90;;;7.40;;
22166;SDS011;11249;52.468;13.776;2023-05-28T02:46:00;11.32;;;6.78;;
22166;SDS011;11249;52.468;13.776;2023-05-28T02:48:28;10.15;;;7.38;;
22166;SDS011;11249;52.468;13.776;2023-05-28T02:50:54;16.73;;;7.28;;
22166;SDS011;11249;52.468;13.776;2023-05-28T02:53:22;10.23;;;6.72;;
22166;SDS011;11249;52.468;13.776;2023-05-28T02:55:49;12.98;;;7.90;;
22166;SDS011;11249;52.468;13.776;2023-05-28T02:58:17;12.90;;;7.47;;
22166;SDS011;11249;52.468;13.776;2023-05-28T03:00:43;11.95;;;7.07;;
22166;SDS011;11249;52.468;13.776;2023-05-28T03:03:10;13.07;;;6.85;;
22166;SDS011;11249;52.468;13.776;2023-05-28T03:05:37;13.27;;;7.25;;
22166;SDS011;11249;52.468;13.776;2023-05-28T03:08:04;16.40;;;6.88;;
22166;SDS011;11249;52.468;13.776;2023-05-28T03:10:31;12.65;;;7.43;;
22166;SDS011;11249;52.468;13.776;2023-05-28T03:12:58;15.30;;;6.88;;
22166;SDS011;11249;52.468;13.776;2023-05-28T03:15:24;11.55;;;7.53;;
22166;SDS011;11249;52.468;13.776;2023-05-28T03:17:54;10.95;;;7.05;;
22166;SDS011;11249;52.468;13.776;2023-05-28T03:20:21;9.75;;;6.57;;
22166;SDS011;11249;52.468;13.776;2023-05-28T03:22:54;9.75;;;6.97;;
22166;SDS011;11249;52.468;13.776;2023-05-28T03:25:21;10.68;;;7.07;;
22166;SDS011;11249;52.468;13.776;2023-05-28T03:27:49;10.70;;;7.18;;
22166;SDS011;11249;52.468;13.776;2023-05-28T03:30:16;12.23;;;7.38;;
22166;SDS011;11249;52.468;13.776;2023-05-28T03:32:43;10.55;;;6.95;;
22166;SDS011;11249;52.468;13.776;2023-05-28T03:35:09;14.60;;;7.22;;
22166;SDS011;11249;52.468;13.776;2023-05-28T03:37:36;10.23;;;7.18;;
22166;SDS011;11249;52.468;13.776;2023-05-28T03:40:03;9.02;;;7.00;;
22166;SDS011;11249;52.468;13.776;2023-05-28T03:42:30;10.25;;;7.15;;
22166;SDS011;11249;52.468;13.776;2023-05-28T03:44:57;11.88;;;6.93;;
22166;SDS011;11249;52.468;13.776;2023-05-28T03:47:24;11.90;;;7.57;;
22166;SDS011;11249;52.468;13.776;2023-05-28T03:49:52;13.35;;;7.18;;
22166;SDS011;11249;52.468;13.776;2023-05-28T03:52:19;12.85;;;7.75;;
22166;SDS011;11249;52.468;13.776;2023-05-28T03:54:46;10.95;;;7.47;;
22166;SDS011;11249;52.468;13.776;2023-05-28T03:57:13;9.82;;;7.13;;
22166;SDS011;11249;52.468;13.776;2023-05-28T03:59:39;13.60;;;7.30;;
22166;SDS011;11249;52.468;13.776;2023-05-28T04:02:06;12.02;;;7.20;;
22166;SDS011;11249;52.468;13.776;2023-05-28T04:04:33;10.95;;;7.25;;
22166;SDS011;11249;52.468;13.776;2023-05-28T04:07:00;14.52;;;7.32;;
22166;SDS011;11249;52.468;13.776;2023-05-28T04:09:26;13.50;;;7.70;;
22166;SDS011;11249;52.468;13.776;2023-05-28T04:11:53;13.38;;;8.00;;
22166;SDS011;11249;52.468;13.776;2023-05-28T04:14:22;12.57;;;7.20;;
22166;SDS011;11249;52.468;13.776;2023-05-28T04:16:48;10.98;;;6.75;;
22166;SDS011;11249;52.468;13.776;2023-05-28T04:19:15;9.88;;;7.43;;
22166;SDS011;11249;52.468;13.776;2023-05-28T04:21:42;10.80;;;7.28;;
22166;SDS011;11249;52.468;13.776;2023-05-28T04:24:09;10.48;;;6.53;;
22166;SDS011;11249;52.468;13.776;2023-05-28T04:26:36;11.32;;;6.55;;
22166;SDS011;11249;52.468;13.776;2023-05-28T04:29:03;10.27;;;6.25;;
22166;SDS011;11249;52.468;13.776;2023-05-28T04:31:30;9.18;;;6.85;;
22166;SDS011;11249;52.468;13.776;2023-05-28T04:33:57;11.70;;;6.47;;
22166;SDS011;11249;52.468;13.776;2023-05-28T04:36:24;11.65;;;6.18;;
22166;SDS011;11249;52.468;13.776;2023-05-28T04:38:55;11.32;;;6.88;;
22166;SDS011;11249;52.468;13.776;2023-05-28T04:41:27;11.20;;;6.72;;
22166;SDS011;11249;52.468;13.776;2023-05-28T04:43:54;9.32;;;6.28;;
22166;SDS011;11249;52.468;13.776;2023-05-28T04:46:22;12.70;;;7.43;;
22166;SDS011;11249;52.468;13.776;2023-05-28T04:48:52;9.50;;;6.70;;
22166;SDS011;11249;52.468;13.776;2023-05-28T04:51:18;11.88;;;6.05;;
22166;SDS011;11249;52.468;13.776;2023-05-28T04:53:47;14.00;;;6.85;;
22166;SDS011;11249;52.468;13.776;2023-05-28T04:56:14;12.55;;;6.68;;
22166;SDS011;11249;52.468;13.776;2023-05-28T04:58:41;10.43;;;6.50;;
22166;SDS011;11249;52.468;13.776;2023-05-28T05:01:08;11.48;;;5.93;;
22166;SDS011;11249;52.468;13.776;2023-05-28T05:03:35;10.75;;;6.25;;
22166;SDS011;11249;52.468;13.776;2023-05-28T05:06:02;9.60;;;6.07;;
22166;SDS011;11249;52.468;13.776;2023-05-28T05:08:29;14.95;;;6.32;;
22166;SDS011;11249;52.468;13.776;2023-05-28T05:10:57;14.35;;;6.40;;
22166;SDS011;11249;52.468;13.776;2023-05-28T05:13:23;11.27;;;5.30;;
22166;SDS011;11249;52.468;13.776;2023-05-28T05:15:50;9.77;;;5.72;;
22166;SDS011;11249;52.468;13.776;2023-05-28T05:18:18;12.30;;;5.95;;
22166;SDS011;11249;52.468;13.776;2023-05-28T05:20:45;11.45;;;6.13;;
22166;SDS011;11249;52.468;13.776;2023-05-28T05:23:12;12.77;;;5.93;;
22166;SDS011;11249;52.468;13.776;2023-05-28T05:25:39;10.93;;;5.65;;
22166;SDS011;11249;52.468;13.776;2023-05-28T05:28:05;12.38;;;5.60;;
22166;SDS011;11249;52.468;13.776;2023-05-28T05:30:32;10.70;;;6.07;;
22166;SDS011;11249;52.468;13.776;2023-05-28T05:32:59;9.40;;;5.55;;
22166;SDS011;11249;52.468;13.776;2023-05-28T05:35:26;7.13;;;4.95;;
22166;SDS011;11249;52.468;13.776;2023-05-28T05:37:52;8.40;;;5.25;;
22166;SDS011;11249;52.468;13.776;2023-05-28T05:40:19;14.77;;;5.95;;
22166;SDS011;11249;52.468;13.776;2023-05-28T05:42:46;10.80;;;5.95;;
22166;SDS011;11249;52.468;13.776;2023-05-28T05:45:12;10.48;;;5.65;;
22166;SDS011;11249;52.468;13.776;2023-05-28T05:47:39;9.98;;;6.07;;
22166;SDS011;11249;52.468;13.776;2023-05-28T05:50:06;14.43;;;5.72;;
22166;SDS011;11249;52.468;13.776;2023-05-28T05:52:33;8.05;;;5.15;;
22166;SDS011;11249;52.468;13.776;2023-05-28T05:55:00;9.50;;;5.70;;
22166;SDS011;11249;52.468;13.776;2023-05-28T05:57:27;9.32;;;5.00;;
22166;SDS011;11249;52.468;13.776;2023-05-28T05:59:54;9.70;;;4.70;;
22166;SDS011;11249;52.468;13.776;2023-05-28T06:02:21;14.90;;;5.28;;
22166;SDS011;11249;52.468;13.776;2023-05-28T06:04:47;10.15;;;5.38;;
22166;SDS011;11249;52.468;13.776;2023-05-28T06:07:15;10.18;;;5.72;;
22166;SDS011;11249;52.468;13.776;2023-05-28T06:09:42;14.00;;;5.22;;
22166;SDS011;11249;52.468;13.776;2023-05-28T06:12:09;7.97;;;4.15;;
22166;SDS011;11249;52.468;13.776;2023-05-28T06:14:36;11.02;;;4.85;;
22166;SDS011;11249;52.468;13.776;2023-05-28T06:17:03;11.98;;;5.32;;
22166;SDS011;11249;52.468;13.776;2023-05-28T06:19:30;8.18;;;5.00;;
22166;SDS011;11249;52.468;13.776;2023-05-28T06:21:57;7.93;;;4.60;;
22166;SDS011;11249;52.468;13.776;2023-05-28T06:24:24;12.88;;;5.82;;
22166;SDS011;11249;52.468;13.776;2023-05-28T06:26:51;14.23;;;5.65;;
22166;SDS011;11249;52.468;13.776;2023-05-28T06:29:17;11.15;;;5.25;;
22166;SDS011;11249;52.468;13.776;2023-05-28T06:31:44;14.10;;;5.22;;
22166;SDS011;11249;52.468;13.776;2023-05-28T06:34:12;8.50;;;4.95;;
22166;SDS011;11249;52.468;13.776;2023-05-28T06:36:38;8.43;;;4.85;;
22166;SDS011;11249;52.468;13.776;2023-05-28T06:39:06;8.40;;;4.53;;
22166;SDS011;11249;52.468;13.776;2023-05-28T06:41:33;16.17;;;5.38;;
22166;SDS011;11249;52.468;13.776;2023-05-28T06:44:00;13.30;;;4.95;;
22166;SDS011;11249;52.468;13.776;2023-05-28T06:46:27;8.23;;;4.50;;
22166;SDS011;11249;52.468;13.776;2023-05-28T06:48:54;10.50;;;4.75;;
22166;SDS011;11249;52.468;13.776;2023-05-28T06:51:21;11.15;;;4.57;;
22166;SDS011;11249;52.468;13.776;2023-05-28T06:53:48;9.05;;;4.32;;
22166;SDS011;11249;52.468;13.776;2023-05-28T06:56:15;9.98;;;5.20;;
22166;SDS011;11249;52.468;13.776;2023-05-28T06:58:42;9.68;;;4.45;;
22166;SDS011;11249;52.468;13.776;2023-05-28T07:01:09;12.02;;;4.22;;
22166;SDS011;11249;52.468;13.776;2023-05-28T07:03:36;8.25;;;3.78;;
22166;SDS011;11249;52.468;13.776;2023-05-28T07:06:02;10.07;;;4.57;;
22166;SDS011;11249;52.468;13.776;2023-05-28T07:08:29;9.10;;;4.10;;
22166;SDS011;11249;52.468;13.776;2023-05-28T07:10:56;6.50;;;3.60;;
22166;SDS011;11249;52.468;13.776;2023-05-28T07:13:23;9.43;;;3.97;;
22166;SDS011;11249;52.468;13.776;2023-05-28T07:15:50;6.63;;;3.88;;
22166;SDS011;11249;52.468;13.776;2023-05-28T07:18:16;10.90;;;4.35;;
22166;SDS011;11249;52.468;13.776;2023-05-28T07:20:43;11.95;;;4.07;;
22166;SDS011;11249;52.468;13.776;2023-05-28T07:23:10;9.45;;;4.10;;
22166;SDS011;11249;52.468;13.776;2023-05-28T07:25:38;8.75;;;4.00;;
22166;SDS011;11249;52.468;13.776;2023-05-28T07:28:05;7.25;;;3.97;;
22166;SDS011;11249;52.468;13.776;2023-05-28T07:30:31;7.78;;;3.13;;
22166;SDS011;11249;52.468;13.776;2023-05-28T07:32:58;7.60;;;3.58;;
22166;SDS011;11249;52.468;13.776;2023-05-28T07:35:25;10.13;;;4.15;;
22166;SDS011;11249;52.468;13.776;2023-05-28T07:37:55;6.85;;;3.40;;
22166;SDS011;11249;52.468;13.776;2023-05-28T07:40:22;6.45;;;3.20;;
22166;SDS011;11249;52.468;13.776;2023-05-28T07:42:49;10.13;;;3.80;;
22166;SDS011;11249;52.468;13.776;2023-05-28T07:45:16;6.55;;;3.50;;
22166;SDS011;11249;52.468;13.776;2023-05-28T07:47:43;6.30;;;3.17;;
22166;SDS011;11249;52.468;13.776;2023-05-28T07:50:09;7.30;;;3.40;;
22166;SDS011;11249;52.468;13.776;2023-05-28T07:52:36;7.88;;;3.00;;
22166;SDS011;11249;52.468;13.776;2023-05-28T07:55:04;7.22;;;3.28;;
22166;SDS011;11249;52.468;13.776;2023-05-28T07:57:31;13.45;;;3.50;;
22166;SDS011;11249;52.468;13.776;2023-05-28T07:59:58;7.95;;;3.53;;
22166;SDS011;11249;52.468;13.776;2023-05-28T08:02:26;5.05;;;3.00;;
22166;SDS011;11249;52.468;13.776;2023-05-28T08:04:53;7.72;;;2.45;;
22166;SDS011;11249;52.468;13.776;2023-05-28T08:07:20;6.95;;;2.90;;
22166;SDS011;11249;52.468;13.776;2023-05-28T08:09:47;7.10;;;2.97;;
22166;SDS011;11249;52.468;13.776;2023-05-28T08:12:14;5.63;;;2.75;;
22166;SDS011;11249;52.468;13.776;2023-05-28T08:14:41;10.40;;;3.17;;
22166;SDS011;11249;52.468;13.776;2023-05-28T08:17:07;5.85;;;2.80;;
22166;SDS011;11249;52.468;13.776;2023-05-28T08:19:34;8.02;;;3.28;;
22166;SDS011;11249;52.468;13.776;2023-05-28T08:22:01;4.03;;;2.35;;
22166;SDS011;11249;52.468;13.776;2023-05-28T08:24:28;8.43;;;2.78;;
22166;SDS011;11249;52.468;13.776;2023-05-28T08:26:54;9.75;;;3.10;;
22166;SDS011;11249;52.468;13.776;2023-05-28T08:29:21;5.72;;;2.85;;
22166;SDS011;11249;52.468;13.776;2023-05-28T08:31:48;4.68;;;3.00;;
22166;SDS011;11249;52.468;13.776;2023-05-28T08:34:15;5.00;;;2.97;;
22166;SDS011;11249;52.468;13.776;2023-05-28T08:36:43;5.28;;;2.67;;
22166;SDS011;11249;52.468;13.776;2023-05-28T08:39:09;5.53;;;2.60;;
22166;SDS011;11249;52.468;13.776;2023-05-28T08:41:37;10.75;;;2.83;;
22166;SDS011;11249;52.468;13.776;2023-05-28T08:44:04;4.57;;;2.72;;
22166;SDS011;11249;52.468;13.776;2023-05-28T08:46:31;9.10;;;3.30;;
22166;SDS011;11249;52.468;13.776;2023-05-28T08:48:58;7.20;;;2.65;;
22166;SDS011;11249;52.468;13.776;2023-05-28T08:51:26;6.05;;;2.95;;
22166;SDS011;11249;52.468;13.776;2023-05-28T08:53:59;7.47;;;3.10;;
22166;SDS011;11249;52.468;13.776;2023-05-28T08:56:29;9.10;;;3.35;;
22166;SDS011;11249;52.468;13.776;2023-05-28T08:58:56;8.32;;;2.97;;
22166;SDS011;11249;52.468;13.776;2023-05-28T09:01:24;6.13;;;3.25;;
22166;SDS011;11249;52.468;13.776;2023-05-28T09:03:52;4.93;;;2.40;;
22166;SDS011;11249;52.468;13.776;2023-05-28T09:06:19;6.00;;;2.50;;
22166;SDS011;11249;52.468;13.776;2023-05-28T09:08:46;5.90;;;2.78;;
22166;SDS011;11249;52.468;13.776;2023-05-28T09:11:14;6.60;;;2.70;;
22166;SDS011;11249;52.468;13.776;2023-05-28T09:13:49;5.50;;;2.70;;
22166;SDS011;11249;52.468;13.776;2023-05-28T09:16:20;10.13;;;3.05;;
22166;SDS011;11249;52.468;13.776;2023-05-28T09:18:48;9.48;;;2.70;;
22166;SDS011;11249;52.468;13.776;2023-05-28T09:21:19;5.47;;;2.58;;
22166;SDS011;11249;52.468;13.776;2023-05-28T09:23:50;5.65;;;3.08;;
22166;SDS011;11249;52.468;13.776;2023-05-28T09:26:17;7.15;;;2.63;;
22166;SDS011;11249;52.468;13.776;2023-05-28T09:28:48;7.72;;;2.55;;
22166;SDS011;11249;52.468;13.776;2023-05-28T09:31:18;5.03;;;2.70;;
22166;SDS011;11249;52.468;13.776;2023-05-28T09:33:45;7.30;;;3.00;;
22166;SDS011;11249;52.468;13.776;2023-05-28T09:36:14;4.88;;;2.72;;
22166;SDS011;11249;52.468;13.776;2023-05-28T09:38:43;4.45;;;2.50;;
22166;SDS011;11249;52.468;13.776;2023-05-28T09:41:17;6.78;;;2.63;;
22166;SDS011;11249;52.468;13.776;2023-05-28T09:43:56;4.85;;;2.50;;
22166;SDS011;11249;52.468;13.776;2023-05-28T09:46:31;6.10;;;2.75;;
22166;SDS011;11249;52.468;13.776;2023-05-28T09:48:59;5.68;;;2.60;;
22166;SDS011;11249;52.468;13.776;2023-05-28T09:51:28;5.28;;;2.80;;
22166;SDS011;11249;52.468;13.776;2023-05-28T09:53:57;8.55;;;2.58;;
22166;SDS011;11249;52.468;13.776;2023-05-28T09:56:30;6.78;;;2.97;;
22166;SDS011;11249;52.468;13.776;2023-05-28T09:59:05;4.55;;;2.83;;
22166;SDS011;11249;52.468;13.776;2023-05-28T10:01:49;4.72;;;2.60;;
22166;SDS011;11249;52.468;13.776;2023-05-28T10:04:22;6.07;;;2.50;;
22166;SDS011;11249;52.468;13.776;2023-05-28T10:06:55;3.72;;;2.45;;
22166;SDS011;11249;52.468;13.776;2023-05-28T10:09:25;4.15;;;2.45;;
22166;SDS011;11249;52.468;13.776;2023-05-28T10:11:55;5.90;;;2.67;;
22166;SDS011;11249;52.468;13.776;2023-05-28T10:14:33;3.58;;;2.28;;
22166;SDS011;11249;52.468;13.776;2023-05-28T10:17:00;4.53;;;2.92;;
22166;SDS011;11249;52.468;13.776;2023-05-28T10:19:28;8.63;;;2.95;;
22166;SDS011;11249;52.468;13.776;2023-05-28T10:21:56;5.78;;;2.72;;
22166;SDS011;11249;52.468;13.776;2023-05-28T10:24:23;6.10;;;2.80;;
22166;SDS011;11249;52.468;13.776;2023-05-28T10:26:52;4.88;;;2.65;;
22166;SDS011;11249;52.468;13.776;2023-05-28T10:29:20;5.72;;;2.42;;
22166;SDS011;11249;52.468;13.776;2023-05-28T10:31:58;5.28;;;2.53;;
22166;SDS011;11249;52.468;13.776;2023-05-28T10:34:30;5.35;;;2.47;;
22166;SDS011;11249;52.468;13.776;2023-05-28T10:37:05;5.30;;;2.63;;
22166;SDS011;11249;52.468;13.776;2023-05-28T10:39:39;5.70;;;2.58;;
22166;SDS011;11249;52.468;13.776;2023-05-28T10:42:07;6.55;;;2.78;;
22166;SDS011;11249;52.468;13.776;2023-05-28T10:47:39;4.78;;;2.58;;
22166;SDS011;11249;52.468;13.776;2023-05-28T10:50:13;5.53;;;2.42;;
22166;SDS011;11249;52.468;13.776;2023-05-28T10:55:45;5.25;;;2.45;;
22166;SDS011;11249;52.468;13.776;2023-05-28T10:58:25;10.00;;;3.13;;
22166;SDS011;11249;52.468;13.776;2023-05-28T11:01:18;6.63;;;2.83;;
22166;SDS011;11249;52.468;13.776;2023-05-28T11:03:55;4.15;;;2.47;;
22166;SDS011;11249;52.468;13.776;2023-05-28T11:06:24;4.32;;;2.78;;
22166;SDS011;11249;52.468;13.776;2023-05-28T11:08:52;6.88;;;2.80;;
22166;SDS011;11249;52.468;13.776;2023-05-28T11:11:19;5.13;;;2.88;;
22166;SDS011;11249;52.468;13.776;2023-05-28T11:13:47;4.78;;;2.60;;
22166;SDS011;11249;52.468;13.776;2023-05-28T11:16:15;5.13;;;2.55;;
22166;SDS011;11249;52.468;13.776;2023-05-28T11:21:31;6.55;;;2.35;;
22166;SDS011;11249;52.468;13.776;2023-05-28T11:24:02;6.22;;;2.33;;
22166;SDS011;11249;52.468;13.776;2023-05-28T11:26:33;6.38;;;2.65;;
22166;SDS011;11249;52.468;13.776;2023-05-28T11:29:00;5.95;;;2.60;;
22166;SDS011;11249;52.468;13.776;2023-05-28T11:31:30;5.93;;;2.63;;
22166;SDS011;11249;52.468;13.776;2023-05-28T11:34:04;4.45;;;2.67;;
22166;SDS011;11249;52.468;13.776;2023-05-28T11:36:37;4.15;;;2.78;;
22166;SDS011;11249;52.468;13.776;2023-05-28T11:39:07;5.60;;;2.60;;
22166;SDS011;11249;52.468;13.776;2023-05-28T11:41:36;4.82;;;2.63;;
22166;SDS011;11249;52.468;13.776;2023-05-28T11:44:20;5.78;;;3.00;;
22166;SDS011;11249;52.468;13.776;2023-05-28T11:46:49;7.88;;;2.80;;
22166;SDS011;11249;52.468;13.776;2023-05-28T11:49:17;6.28;;;2.67;;
22166;SDS011;11249;52.468;13.776;2023-05-28T11:51:44;4.18;;;2.45;;
22166;SDS011;11249;52.468;13.776;2023-05-28T11:54:12;6.13;;;2.70;;
22166;SDS011;11249;52.468;13.776;2023-05-28T11:56:38;3.13;;;2.25;;
22166;SDS011;11249;52.468;13.776;2023-05-28T11:59:05;5.70;;;2.72;;
22166;SDS011;11249;52.468;13.776;2023-05-28T12:01:32;7.47;;;2.95;;
22166;SDS011;11249;52.468;13.776;2023-05-28T12:04:06;3.85;;;2.30;;
22166;SDS011;11249;52.468;13.776;2023-05-28T12:06:33;6.90;;;2.53;;
22166;SDS011;11249;52.468;13.776;2023-05-28T12:09:06;6.05;;;2.30;;
22166;SDS011;11249;52.468;13.776;2023-05-28T12:11:34;5.47;;;2.53;;
22166;SDS011;11249;52.468;13.776;2023-05-28T12:14:10;6.53;;;2.53;;
22166;SDS011;11249;52.468;13.776;2023-05-28T12:16:44;4.47;;;2.50;;
22166;SDS011;11249;52.468;13.776;2023-05-28T12:19:15;7.70;;;2.95;;
22166;SDS011;11249;52.468;13.776;2023-05-28T12:21:42;6.68;;;2.60;;
22166;SDS011;11249;52.468;13.776;2023-05-28T12:24:13;5.95;;;2.97;;
22166;SDS011;11249;52.468;13.776;2023-05-28T12:26:41;6.70;;;2.67;;
22166;SDS011;11249;52.468;13.776;2023-05-28T12:29:08;4.68;;;2.80;;
22166;SDS011;11249;52.468;13.776;2023-05-28T12:31:35;3.55;;;2.80;;
22166;SDS011;11249;52.468;13.776;2023-05-28T12:34:02;5.63;;;2.75;;
22166;SDS011;11249;52.468;13.776;2023-05-28T12:36:29;6.75;;;2.80;;
22166;SDS011;11249;52.468;13.776;2023-05-28T12:38:56;6.45;;;2.50;;
22166;SDS011;11249;52.468;13.776;2023-05-28T12:41:22;7.35;;;3.00;;
22166;SDS011;11249;52.468;13.776;2023-05-28T12:43:49;7.95;;;2.97;;
22166;SDS011;11249;52.468;13.776;2023-05-28T12:46:16;5.05;;;2.70;;
22166;SDS011;11249;52.468;13.776;2023-05-28T12:48:43;6.68;;;2.53;;
22166;SDS011;11249;52.468;13.776;2023-05-28T12:51:09;4.78;;;2.60;;
22166;SDS011;11249;52.468;13.776;2023-05-28T12:53:38;4.78;;;2.78;;
22166;SDS011;11249;52.468;13.776;2023-05-28T12:56:04;9.30;;;3.03;;
22166;SDS011;11249;52.468;13.776;2023-05-28T12:58:32;5.38;;;2.92;;
22166;SDS011;11249;52.468;13.776;2023-05-28T13:00:59;6.45;;;2.90;;
22166;SDS011;11249;52.468;13.776;2023-05-28T13:03:26;5.35;;;2.45;;
22166;SDS011;11249;52.468;13.776;2023-05-28T13:05:52;3.13;;;2.22;;
22166;SDS011;11249;52.468;13.776;2023-05-28T13:08:19;6.20;;;3.03;;
22166;SDS011;11249;52.468;13.776;2023-05-28T13:10:46;5.15;;;2.95;;
22166;SDS011;11249;52.468;13.776;2023-05-28T13:13:15;4.70;;;2.80;;
22166;SDS011;11249;52.468;13.776;2023-05-28T13:15:42;5.78;;;2.30;;
22166;SDS011;11249;52.468;13.776;2023-05-28T13:18:08;8.25;;;3.08;;
22166;SDS011;11249;52.468;13.776;2023-05-28T13:20:35;9.10;;;3.00;;
22166;SDS011;11249;52.468;13.776;2023-05-28T13:23:02;3.17;;;2.50;;
22166;SDS011;11249;52.468;13.776;2023-05-28T13:25:29;5.35;;;2.78;;
22166;SDS011;11249;52.468;13.776;2023-05-28T13:27:57;3.70;;;2.33;;
22166;SDS011;11249;52.468;13.776;2023-05-28T13:30:26;5.07;;;2.85;;
22166;SDS011;11249;52.468;13.776;2023-05-28T13:32:53;6.00;;;3.03;;
22166;SDS011;11249;52.468;13.776;2023-05-28T13:35:20;5.13;;;2.70;;
22166;SDS011;11249;52.468;13.776;2023-05-28T13:37:47;6.75;;;2.42;;
22166;SDS011;11249;52.468;13.776;2023-05-28T13:40:14;4.47;;;2.50;;
22166;SDS011;11249;52.468;13.776;2023-05-28T13:42:40;3.75;;;2.50;;
22166;SDS011;11249;52.468;13.776;2023-05-28T13:45:08;6.82;;;2.70;;
22166;SDS011;11249;52.468;13.776;2023-05-28T13:47:38;5.13;;;3.22;;
22166;SDS011;11249;52.468;13.776;2023-05-28T13:50:05;5.43;;;2.83;;
22166;SDS011;11249;52.468;13.776;2023-05-28T13:52:32;5.10;;;2.40;;
22166;SDS011;11249;52.468;13.776;2023-05-28T13:54:59;4.10;;;2.70;;
22166;SDS011;11249;52.468;13.776;2023-05-28T13:57:26;7.22;;;2.63;;
22166;SDS011;11249;52.468;13.776;2023-05-28T13:59:53;4.15;;;2.53;;
22166;SDS011;11249;52.468;13.776;2023-05-28T14:02:19;4.35;;;2.60;;
22166;SDS011;11249;52.468;13.776;2023-05-28T14:04:46;4.93;;;2.47;;
22166;SDS011;11249;52.468;13.776;2023-05-28T14:07:13;3.03;;;2.28;;
22166;SDS011;11249;52.468;13.776;2023-05-28T14:09:40;3.70;;;2.60;;
22166;SDS011;11249;52.468;13.776;2023-05-28T14:12:07;4.32;;;2.85;;
22166;SDS011;11249;52.468;13.776;2023-05-28T14:14:47;4.38;;;2.50;;
22166;SDS011;11249;52.468;13.776;2023-05-28T14:17:13;5.05;;;3.15;;
22166;SDS011;11249;52.468;13.776;2023-05-28T14:19:40;7.57;;;2.70;;
22166;SDS011;11249;52.468;13.776;2023-05-28T14:22:07;8.88;;;3.03;;
22166;SDS011;11249;52.468;13.776;2023-05-28T14:24:34;6.78;;;2.85;;
22166;SDS011;11249;52.468;13.776;2023-05-28T14:27:01;6.47;;;2.50;;
22166;SDS011;11249;52.468;13.776;2023-05-28T14:29:28;3.70;;;2.50;;
22166;SDS011;11249;52.468;13.776;2023-05-28T14:31:54;5.43;;;2.75;;
22166;SDS011;11249;52.468;13.776;2023-05-28T14:34:21;6.28;;;2.70;;
22166;SDS011;11249;52.468;13.776;2023-05-28T14:36:48;4.50;;;2.47;;
22166;SDS011;11249;52.468;13.776;2023-05-28T14:39:15;5.85;;;2.65;;
22166;SDS011;11249;52.468;13.776;2023-05-28T14:41:42;5.63;;;2.80;;
22166;SDS011;11249;52.468;13.776;2023-05-28T14:44:08;5.03;;;2.50;;